Time;durP1;ratioP1;P1;durP2;ratioP2;P2;SDS_P1;SDS_P2;PMS_P1;PMS_P2;Temp;Humidity;BMP_temperature;BMP_pressure;BME280_temperature;BME280_humidity;BME280_pressure;Samples;Min_cycle;Max_cycle;Signal;HPM_P1;HPM_P2
2021/06/08 00:00:01;;;;;;;5.65;4.05;;;19.20;57.00;;;;;;5112268;28;20023;-72
2021/06/08 00:02:27;;;;;;;4.78;3.95;;;19.10;57.00;;;;;;5112286;28;20144;-72
2021/06/08 00:04:53;;;;;;;5.43;4.28;;;19.10;57.10;;;;;;5097410;28;20496;-72
2021/06/08 00:07:19;;;;;;;4.97;4.32;;;19.10;57.20;;;;;;5090684;28;20028;-72
2021/06/08 00:09:44;;;;;;;15.68;4.05;;;19.00;57.20;;;;;;5091618;28;20119;-72
2021/06/08 00:12:10;;;;;;;6.05;4.50;;;19.00;57.20;;;;;;5107227;28;20107;-72
2021/06/08 00:14:36;;;;;;;7.03;3.67;;;19.00;57.40;;;;;;5091708;28;20481;-74
2021/06/08 00:17:02;;;;;;;6.95;4.25;;;19.00;57.30;;;;;;5091684;28;20024;-73
2021/06/08 00:19:28;;;;;;;6.95;4.28;;;18.90;57.30;;;;;;5091598;28;20023;-72
2021/06/08 00:21:54;;;;;;;4.30;3.90;;;18.90;57.40;;;;;;5091500;28;20028;-73
2021/06/08 00:24:19;;;;;;;4.32;3.78;;;18.90;57.60;;;;;;5091232;28;20022;-72
2021/06/08 00:26:45;;;;;;;3.83;3.13;;;18.80;57.40;;;;;;5091590;28;20077;-72
2021/06/08 00:29:11;;;;;;;4.38;3.92;;;18.80;57.50;;;;;;5095062;28;20091;-73
2021/06/08 00:31:37;;;;;;;7.07;3.83;;;18.80;57.60;;;;;;5091557;28;20063;-73
2021/06/08 00:34:03;;;;;;;3.83;3.53;;;18.80;57.60;;;;;;5094850;28;20035;-73
2021/06/08 00:36:29;;;;;;;6.55;4.20;;;18.80;57.60;;;;;;5101247;28;20103;-72
2021/06/08 00:38:54;;;;;;;5.07;3.83;;;18.70;57.90;;;;;;5106208;28;20016;-73
2021/06/08 00:41:36;;;;;;;4.75;4.25;;;18.70;57.80;;;;;;5093972;28;20526;-73
2021/06/08 00:44:06;;;;;;;5.20;4.38;;;18.60;58.20;;;;;;5094611;28;20068;-73
2021/06/08 00:46:32;;;;;;;4.40;3.80;;;18.70;58.10;;;;;;5095646;28;20016;-73
2021/06/08 00:48:58;;;;;;;4.70;3.80;;;18.60;58.00;;;;;;5102337;28;20080;-73
2021/06/08 00:51:24;;;;;;;8.75;4.80;;;18.60;58.00;;;;;;5099729;28;20099;-72
2021/06/08 00:53:51;;;;;;;6.57;4.63;;;18.60;58.40;;;;;;5099394;28;20026;-72
2021/06/08 00:56:17;;;;;;;10.68;4.90;;;18.60;58.50;;;;;;5104995;28;20389;-73
2021/06/08 00:58:45;;;;;;;7.95;4.32;;;18.60;58.50;;;;;;5116241;28;20015;-73
2021/06/08 01:01:12;;;;;;;4.88;4.38;;;18.60;58.70;;;;;;5098264;28;20016;-72
2021/06/08 01:03:37;;;;;;;5.88;4.45;;;18.60;58.70;;;;;;5095661;28;20020;-72
2021/06/08 01:06:04;;;;;;;8.07;4.10;;;18.50;58.50;;;;;;5095629;28;20032;-72
2021/06/08 01:08:30;;;;;;;6.78;4.07;;;18.50;58.60;;;;;;5095553;28;20020;-73
2021/06/08 01:10:55;;;;;;;4.75;4.25;;;18.40;58.60;;;;;;5095206;28;20027;-72
2021/06/08 01:13:21;;;;;;;7.78;4.40;;;18.50;58.70;;;;;;5110398;28;20034;-72
2021/06/08 01:15:51;;;;;;;9.68;3.70;;;18.40;58.60;;;;;;5115595;28;20024;-73
2021/06/08 01:18:16;;;;;;;6.82;3.88;;;18.40;58.70;;;;;;5098637;28;20028;-73
2021/06/08 01:20:42;;;;;;;7.13;3.75;;;18.40;58.70;;;;;;5095252;28;20385;-73
2021/06/08 01:23:08;;;;;;;4.35;3.63;;;18.40;58.70;;;;;;5095391;28;20473;-73
2021/06/08 01:25:34;;;;;;;4.57;4.18;;;18.30;58.70;;;;;;5093951;28;20031;-72
2021/06/08 01:28:00;;;;;;;5.15;4.05;;;18.30;58.70;;;;;;5095293;28;20386;-72
2021/06/08 01:30:28;;;;;;;5.57;4.57;;;18.20;58.70;;;;;;5096794;28;20067;-73
2021/06/08 01:32:55;;;;;;;5.75;3.72;;;18.20;58.80;;;;;;5115634;28;20473;-72
2021/06/08 01:35:21;;;;;;;4.18;3.67;;;18.20;58.80;;;;;;5115182;28;20019;-73
2021/06/08 01:37:48;;;;;;;6.32;4.05;;;18.20;58.90;;;;;;5115189;28;20098;-73
2021/06/08 01:40:17;;;;;;;11.05;4.28;;;18.20;59.20;;;;;;5113328;28;20015;-72
2021/06/08 01:42:44;;;;;;;6.55;5.10;;;18.10;59.40;;;;;;5094968;28;20024;-72
2021/06/08 01:45:13;;;;;;;6.00;4.57;;;18.20;60.00;;;;;;5094879;28;20023;-73
2021/06/08 01:47:39;;;;;;;5.57;3.97;;;18.20;59.80;;;;;;5094749;28;20023;-73
2021/06/08 01:50:05;;;;;;;10.07;4.55;;;18.10;59.70;;;;;;5105372;28;20422;-72
2021/06/08 01:52:42;;;;;;;8.57;4.72;;;18.20;59.80;;;;;;5094858;28;20024;-72
2021/06/08 01:55:24;;;;;;;5.22;4.38;;;18.20;59.90;;;;;;5094758;28;20016;-72
2021/06/08 01:57:51;;;;;;;5.43;4.55;;;18.20;59.80;;;;;;5094661;28;20051;-73
2021/06/08 02:00:27;;;;;;;6.53;4.43;;;18.20;59.90;;;;;;5096338;28;20024;-73
2021/06/08 02:03:12;;;;;;;5.80;4.15;;;18.20;59.90;;;;;;5098201;28;20024;-72
2021/06/08 02:05:50;;;;;;;8.90;4.75;;;18.20;59.90;;;;;;5094523;28;20412;-73
2021/06/08 02:08:23;;;;;;;6.18;4.20;;;18.20;59.80;;;;;;5093247;28;20047;-72
2021/06/08 02:10:58;;;;;;;7.07;4.00;;;18.20;59.70;;;;;;5094057;28;20035;-73
2021/06/08 02:13:30;;;;;;;4.57;3.55;;;18.20;59.80;;;;;;5094496;28;20373;-72
2021/06/08 02:16:06;;;;;;;7.00;4.10;;;18.20;59.80;;;;;;5097339;28;20081;-72
2021/06/08 02:18:35;;;;;;;5.20;4.28;;;18.10;59.80;;;;;;5114368;28;20020;-73
2021/06/08 02:21:03;;;;;;;5.25;3.75;;;18.10;59.80;;;;;;5104986;28;20110;-72
2021/06/08 02:23:30;;;;;;;5.25;4.30;;;18.10;59.80;;;;;;5093010;28;20377;-72
2021/06/08 02:25:58;;;;;;;7.13;4.18;;;18.10;59.90;;;;;;5101302;28;20027;-73
2021/06/08 02:28:28;;;;;;;5.80;4.43;;;18.10;59.80;;;;;;5113407;28;20111;-72
2021/06/08 02:30:55;;;;;;;9.00;4.50;;;18.10;59.80;;;;;;5096601;28;20062;-72
2021/06/08 02:33:23;;;;;;;5.90;4.75;;;18.10;59.80;;;;;;5096011;28;20106;-73
2021/06/08 02:35:50;;;;;;;4.00;3.60;;;18.10;59.90;;;;;;5102464;28;20032;-73
2021/06/08 02:38:17;;;;;;;6.30;4.40;;;18.10;59.80;;;;;;5096135;28;20034;-72
2021/06/08 02:40:44;;;;;;;7.70;4.57;;;18.00;59.90;;;;;;5093568;28;20028;-73
2021/06/08 02:43:11;;;;;;;5.95;4.47;;;18.00;60.00;;;;;;5100508;28;20080;-72
2021/06/08 02:45:39;;;;;;;5.75;4.18;;;18.00;59.80;;;;;;5109516;28;20029;-73
2021/06/08 02:48:05;;;;;;;9.05;4.88;;;18.00;59.90;;;;;;5105687;28;20023;-73
2021/06/08 02:50:32;;;;;;;6.70;5.32;;;18.00;60.00;;;;;;5110503;28;20119;-72
2021/06/08 02:52:58;;;;;;;5.78;4.95;;;17.90;60.30;;;;;;5112173;28;20024;-73
2021/06/08 02:55:26;;;;;;;6.95;4.90;;;17.90;60.40;;;;;;5113614;28;20096;-73
2021/06/08 02:57:54;;;;;;;6.78;4.22;;;17.90;60.30;;;;;;5095527;28;20103;-73
2021/06/08 03:00:21;;;;;;;5.40;4.55;;;17.90;60.20;;;;;;5098911;28;20137;-73
2021/06/08 03:02:50;;;;;;;7.45;4.65;;;17.90;60.20;;;;;;5108910;28;20028;-73
2021/06/08 03:05:30;;;;;;;7.70;5.25;;;17.90;60.40;;;;;;5093116;28;20024;-73
2021/06/08 03:08:01;;;;;;;6.80;5.28;;;17.80;60.70;;;;;;5092195;28;20706;-73
2021/06/08 03:10:31;;;;;;;10.98;5.60;;;17.80;60.70;;;;;;5093078;28;20024;-72
2021/06/08 03:13:00;;;;;;;9.07;5.10;;;17.80;60.60;;;;;;5091985;28;20031;-73
2021/06/08 03:15:47;;;;;;;7.00;5.10;;;17.80;60.60;;;;;;5091966;28;20031;-73
2021/06/08 03:18:17;;;;;;;7.03;4.30;;;17.80;60.90;;;;;;5093046;28;20016;-73
2021/06/08 03:20:56;;;;;;;10.23;4.97;;;17.70;60.60;;;;;;5092807;28;20022;-73
2021/06/08 03:23:26;;;;;;;5.95;4.85;;;17.80;60.80;;;;;;5093091;28;20028;-73
2021/06/08 03:25:53;;;;;;;10.27;5.82;;;17.70;61.00;;;;;;5093639;28;20024;-73
2021/06/08 03:28:22;;;;;;;10.98;6.30;;;17.70;61.30;;;;;;5091756;28;20036;-72
2021/06/08 03:30:49;;;;;;;9.45;6.38;;;17.70;61.40;;;;;;5109753;28;20027;-73
2021/06/08 03:33:16;;;;;;;10.70;6.43;;;17.70;61.40;;;;;;5111640;28;20024;-73
2021/06/08 03:35:43;;;;;;;11.48;5.68;;;17.70;61.70;;;;;;5112324;28;20020;-73
2021/06/08 03:38:10;;;;;;;8.75;6.05;;;17.70;61.60;;;;;;5111760;28;20032;-73
2021/06/08 03:40:36;;;;;;;10.82;6.40;;;17.70;61.70;;;;;;5106444;28;20435;-73
2021/06/08 03:43:04;;;;;;;9.55;5.85;;;17.70;61.60;;;;;;5098950;28;20056;-72
2021/06/08 03:45:31;;;;;;;9.40;5.15;;;17.70;61.80;;;;;;5092601;28;20482;-72
2021/06/08 03:47:58;;;;;;;6.45;5.68;;;17.80;61.70;;;;;;5099174;28;20047;-73
2021/06/08 03:50:24;;;;;;;6.45;5.57;;;17.80;61.80;;;;;;5091191;28;20127;-72
2021/06/08 03:52:50;;;;;;;9.18;5.70;;;17.80;61.80;;;;;;5092552;28;20020;-72
2021/06/08 03:55:25;;;;;;;10.27;6.07;;;17.80;61.70;;;;;;5092567;28;20016;-73
2021/06/08 03:57:54;;;;;;;10.82;6.82;;;17.90;61.90;;;;;;5092701;28;20023;-73
2021/06/08 04:00:23;;;;;;;8.75;5.72;;;17.80;61.90;;;;;;5092720;28;20027;-72
2021/06/08 04:02:49;;;;;;;9.02;4.97;;;17.80;61.80;;;;;;5109976;28;20089;-73
2021/06/08 04:05:15;;;;;;;9.50;5.60;;;17.90;61.80;;;;;;5109097;28;20024;-73
2021/06/08 04:07:44;;;;;;;6.10;4.57;;;17.90;61.70;;;;;;5092592;28;20440;-73
2021/06/08 04:10:19;;;;;;;10.82;5.97;;;17.90;61.70;;;;;;5091339;28;20077;-72
2021/06/08 04:12:45;;;;;;;7.70;5.60;;;17.90;61.80;;;;;;5096156;28;20012;-72
2021/06/08 04:15:12;;;;;;;6.10;5.50;;;17.90;61.60;;;;;;5096588;28;20027;-73
2021/06/08 04:17:38;;;;;;;10.55;5.15;;;17.90;61.80;;;;;;5096522;28;20077;-73
2021/06/08 04:20:07;;;;;;;9.25;5.30;;;18.00;61.70;;;;;;5096516;28;20047;-73
2021/06/08 04:22:35;;;;;;;12.32;5.95;;;18.00;61.60;;;;;;5096352;28;20028;-72
2021/06/08 04:25:04;;;;;;;6.70;5.13;;;18.00;61.70;;;;;;5095227;28;20359;-73
2021/06/08 04:27:31;;;;;;;7.15;4.90;;;18.00;61.70;;;;;;5096359;28;20035;-73
2021/06/08 04:29:57;;;;;;;5.70;4.85;;;18.10;61.60;;;;;;5108987;28;20031;-73
2021/06/08 04:32:24;;;;;;;6.38;5.63;;;18.10;61.60;;;;;;5096883;28;20028;-73
2021/06/08 04:34:56;;;;;;;6.53;5.57;;;18.10;61.60;;;;;;5096202;28;20094;-73
2021/06/08 04:37:22;;;;;;;12.63;6.35;;;18.20;61.70;;;;;;5109410;28;20024;-73
2021/06/08 04:39:49;;;;;;;11.45;6.38;;;18.20;62.10;;;;;;5096307;28;20027;-72
2021/06/08 04:42:16;;;;;;;9.65;6.72;;;18.20;62.50;;;;;;5101720;28;20035;-73
2021/06/08 04:44:52;;;;;;;16.52;6.55;;;18.30;62.50;;;;;;5096227;28;20012;-73
2021/06/08 04:47:20;;;;;;;10.10;6.32;;;18.30;62.40;;;;;;5095029;28;20494;-74
2021/06/08 04:49:46;;;;;;;10.95;6.07;;;18.40;62.20;;;;;;5095542;28;20094;-72
2021/06/08 04:52:12;;;;;;;12.48;6.45;;;18.40;62.00;;;;;;5095704;28;20504;-73
2021/06/08 04:54:39;;;;;;;13.82;7.55;;;18.50;62.10;;;;;;5106965;28;20381;-73
2021/06/08 04:57:06;;;;;;;10.25;6.50;;;18.50;61.90;;;;;;5113666;28;20474;-73
2021/06/08 04:59:46;;;;;;;19.38;8.30;;;18.50;61.70;;;;;;5103131;28;20029;-73
2021/06/08 05:02:32;;;;;;;19.45;9.68;;;18.50;61.70;;;;;;5114051;28;20024;-73
2021/06/08 05:05:07;;;;;;;20.90;9.68;;;18.60;61.80;;;;;;5101158;28;20077;-73
2021/06/08 05:07:38;;;;;;;18.38;9.00;;;18.70;61.90;;;;;;5095541;28;20599;-72
2021/06/08 05:10:06;;;;;;;16.08;8.20;;;18.70;61.90;;;;;;5095494;28;20333;-73
2021/06/08 05:12:33;;;;;;;13.82;7.82;;;18.80;61.90;;;;;;5094000;28;20051;-74
2021/06/08 05:15:02;;;;;;;18.92;8.60;;;18.90;61.80;;;;;;5095329;28;20011;-73
2021/06/08 05:17:30;;;;;;;11.05;7.13;;;19.00;61.80;;;;;;5093817;28;20027;-73
2021/06/08 05:19:56;;;;;;;34.25;10.02;;;19.10;61.80;;;;;;5095320;28;20447;-73
2021/06/08 05:22:24;;;;;;;44.20;10.52;;;19.10;61.70;;;;;;5094489;28;20096;-72
2021/06/08 05:24:53;;;;;;;59.40;12.20;;;19.30;61.70;;;;;;5095326;28;20044;-73
2021/06/08 05:27:20;;;;;;;27.92;9.93;;;19.40;61.70;;;;;;5095243;28;20020;-73
2021/06/08 05:29:51;;;;;;;18.13;7.78;;;19.50;61.40;;;;;;5104155;28;20028;-73
2021/06/08 05:32:17;;;;;;;15.68;8.13;;;19.60;61.20;;;;;;5097053;28;20024;-73
2021/06/08 05:34:44;;;;;;;10.60;6.32;;;19.80;60.90;;;;;;5094938;28;20116;-73
2021/06/08 05:37:13;;;;;;;12.80;6.35;;;19.90;60.70;;;;;;5096366;28;20031;-73
2021/06/08 05:39:40;;;;;;;20.27;6.10;;;20.00;60.40;;;;;;5098508;28;20132;-72
2021/06/08 05:42:08;;;;;;;14.00;5.38;;;20.10;60.90;;;;;;5105712;28;20024;-74
2021/06/08 05:44:34;;;;;;;9.57;5.82;;;20.20;59.90;;;;;;5097822;28;20513;-73
2021/06/08 05:47:05;;;;;;;7.10;5.65;;;20.30;59.80;;;;;;5094639;28;20028;-73
2021/06/08 05:49:32;;;;;;;16.13;6.35;;;20.40;59.40;;;;;;5103091;28;20121;-73
2021/06/08 05:51:59;;;;;;;10.18;6.47;;;20.50;59.30;;;;;;5114717;28;20031;-73
2021/06/08 05:54:29;;;;;;;13.23;7.00;;;20.60;59.30;;;;;;5114539;28;20019;-73
2021/06/08 05:56:56;;;;;;;15.32;6.25;;;20.70;58.90;;;;;;5093169;28;20024;-73
2021/06/08 05:59:23;;;;;;;12.10;6.40;;;20.70;58.70;;;;;;5094241;28;20043;-72
2021/06/08 06:01:49;;;;;;;7.30;5.65;;;20.80;58.60;;;;;;5107125;28;20049;-73
2021/06/08 06:04:17;;;;;;;12.15;6.63;;;20.90;58.50;;;;;;5114656;28;20031;-73
2021/06/08 06:06:45;;;;;;;15.73;5.93;;;21.00;58.40;;;;;;5104433;28;20024;-73
2021/06/08 06:09:12;;;;;;;13.15;5.50;;;21.10;58.30;;;;;;5094345;28;20063;-73
2021/06/08 06:11:42;;;;;;;14.32;5.80;;;21.20;58.20;;;;;;5112684;28;20054;-73
2021/06/08 06:14:08;;;;;;;8.93;5.80;;;21.40;58.00;;;;;;5114630;28;20538;-73
2021/06/08 06:16:40;;;;;;;11.60;5.97;;;21.50;57.90;;;;;;5114582;28;20091;-72
2021/06/08 06:19:09;;;;;;;11.20;6.63;;;21.60;57.40;;;;;;5114208;28;20421;-73
2021/06/08 06:21:35;;;;;;;15.88;7.10;;;21.70;57.00;;;;;;5102895;28;20465;-72
2021/06/08 06:24:03;;;;;;;13.45;7.50;;;21.80;56.40;;;;;;5096260;28;20074;-74
2021/06/08 06:26:30;;;;;;;9.70;5.82;;;22.00;56.80;;;;;;5106257;28;20123;-73
2021/06/08 06:28:56;;;;;;;10.05;6.30;;;22.10;56.30;;;;;;5110427;28;20026;-73
2021/06/08 06:31:23;;;;;;;9.80;6.43;;;22.30;56.40;;;;;;5113287;28;20025;-73
2021/06/08 06:33:53;;;;;;;12.07;6.95;;;22.50;56.00;;;;;;5112876;28;20016;-72
2021/06/08 06:36:20;;;;;;;11.77;7.40;;;22.80;55.20;;;;;;5110358;28;20012;-73
2021/06/08 06:38:49;;;;;;;14.80;7.22;;;22.90;53.80;;;;;;5113759;28;20469;-73
2021/06/08 06:41:17;;;;;;;13.25;7.40;;;23.10;53.50;;;;;;5103735;28;20031;-73
2021/06/08 06:43:52;;;;;;;8.43;7.00;;;23.20;52.60;;;;;;5113780;28;20049;-72
2021/06/08 06:46:18;;;;;;;9.18;6.95;;;23.20;51.90;;;;;;5111808;28;20054;-72
2021/06/08 06:48:45;;;;;;;13.27;7.68;;;23.20;51.20;;;;;;5113751;28;20124;-73
2021/06/08 06:51:12;;;;;;;7.65;6.45;;;23.20;50.80;;;;;;5105233;28;20028;-73
2021/06/08 06:53:40;;;;;;;16.42;6.85;;;23.20;50.40;;;;;;5093287;28;20020;-73
2021/06/08 06:56:06;;;;;;;8.32;6.47;;;23.10;51.00;;;;;;5092136;28;20016;-73
2021/06/08 06:58:33;;;;;;;9.73;7.22;;;23.10;51.40;;;;;;5093035;28;20086;-73
2021/06/08 07:00:59;;;;;;;10.18;7.18;;;23.10;51.60;;;;;;5093263;28;20024;-73
2021/06/08 07:03:31;;;;;;;12.38;6.93;;;23.10;52.00;;;;;;5092952;28;20473;-72
2021/06/08 07:05:58;;;;;;;8.43;6.47;;;23.00;52.00;;;;;;5093462;28;20031;-71
2021/06/08 07:08:26;;;;;;;7.18;6.47;;;23.00;52.30;;;;;;5104027;28;20540;-71
2021/06/08 07:10:52;;;;;;;9.13;6.43;;;23.10;52.50;;;;;;5109365;28;20027;-70
2021/06/08 07:13:19;;;;;;;9.43;6.55;;;23.10;52.70;;;;;;5092990;28;20028;-71
2021/06/08 07:15:46;;;;;;;10.77;6.80;;;23.10;52.80;;;;;;5093118;28;20020;-72
2021/06/08 07:18:12;;;;;;;11.75;7.15;;;23.20;52.70;;;;;;5090880;28;20020;-72
2021/06/08 07:20:39;;;;;;;10.18;7.25;;;23.20;52.60;;;;;;5091702;28;20008;-71
2021/06/08 07:23:05;;;;;;;10.77;7.03;;;23.20;52.70;;;;;;5092984;28;20020;-72
2021/06/08 07:25:38;;;;;;;10.75;8.20;;;23.30;52.80;;;;;;5092903;28;20016;-71
2021/06/08 07:28:08;;;;;;;11.38;6.88;;;23.30;52.50;;;;;;5092985;28;20059;-71
2021/06/08 07:30:35;;;;;;;11.82;8.10;;;23.30;52.40;;;;;;5110563;28;20034;-71
2021/06/08 07:33:12;;;;;;;11.57;7.20;;;23.40;52.40;;;;;;5113192;28;20515;-71
2021/06/08 07:35:49;;;;;;;16.58;8.50;;;23.50;52.30;;;;;;5101978;28;20019;-71
2021/06/08 07:38:24;;;;;;;15.63;8.40;;;23.60;51.80;;;;;;5092828;28;20016;-71
2021/06/08 07:41:06;;;;;;;12.15;8.43;;;23.60;51.60;;;;;;5092800;28;20477;-71
2021/06/08 07:43:42;;;;;;;10.98;8.23;;;23.60;52.00;;;;;;5092533;28;20024;-71
2021/06/08 07:46:13;;;;;;;12.15;7.75;;;23.70;51.40;;;;;;5092510;28;20123;-71
2021/06/08 07:48:42;;;;;;;11.00;8.32;;;23.80;51.30;;;;;;5092603;28;20016;-71
2021/06/08 07:51:09;;;;;;;13.98;8.38;;;23.80;51.20;;;;;;5092511;28;20044;-71
2021/06/08 07:53:35;;;;;;;10.45;7.90;;;23.90;51.10;;;;;;5091368;28;20020;-71
2021/06/08 07:56:01;;;;;;;9.57;8.02;;;23.90;50.90;;;;;;5092734;28;20048;-71
2021/06/08 07:58:27;;;;;;;12.57;7.63;;;24.00;50.90;;;;;;5092700;28;20024;-71
2021/06/08 08:00:59;;;;;;;16.05;7.97;;;24.00;50.90;;;;;;5096237;28;20035;-71
2021/06/08 08:03:29;;;;;;;9.02;7.95;;;24.10;50.80;;;;;;5105576;28;20028;-71
2021/06/08 08:05:58;;;;;;;7.88;6.28;;;24.20;50.50;;;;;;5112938;28;20015;-71
2021/06/08 08:08:24;;;;;;;9.32;6.60;;;24.30;50.00;;;;;;5112802;28;20027;-71
2021/06/08 08:10:51;;;;;;;8.80;6.65;;;24.30;49.70;;;;;;5108178;28;20513;-71
2021/06/08 08:13:25;;;;;;;14.80;6.82;;;24.40;49.20;;;;;;5101162;28;20016;-71
2021/06/08 08:15:52;;;;;;;10.77;7.18;;;24.40;49.20;;;;;;5111517;28;20076;-71
2021/06/08 08:18:20;;;;;;;9.27;6.72;;;24.50;49.80;;;;;;5112664;28;20024;-71
2021/06/08 08:20:51;;;;;;;9.88;7.78;;;24.60;49.80;;;;;;5112734;28;20107;-71
2021/06/08 08:23:18;;;;;;;11.15;6.30;;;24.60;49.20;;;;;;5110454;28;20057;-71
2021/06/08 08:25:45;;;;;;;6.95;6.22;;;24.70;48.80;;;;;;5097256;28;20059;-71
2021/06/08 08:28:11;;;;;;;7.60;6.10;;;24.80;48.60;;;;;;5091034;28;20363;-71
2021/06/08 08:30:38;;;;;;;10.38;6.53;;;24.90;48.70;;;;;;5108377;28;20028;-71
2021/06/08 08:33:04;;;;;;;14.30;6.70;;;24.90;48.50;;;;;;5094864;28;20013;-71
2021/06/08 08:35:32;;;;;;;9.00;7.53;;;25.00;48.70;;;;;;5092515;28;20489;-71
2021/06/08 08:37:58;;;;;;;9.13;6.72;;;25.00;48.60;;;;;;5092265;28;20072;-71
2021/06/08 08:40:24;;;;;;;8.00;7.20;;;25.10;49.10;;;;;;5092169;28;20024;-71
2021/06/08 08:42:50;;;;;;;6.20;5.57;;;25.20;49.30;;;;;;5092890;28;20028;-71
2021/06/08 08:45:17;;;;;;;10.02;6.70;;;25.30;49.20;;;;;;5112286;28;20035;-71
2021/06/08 08:47:44;;;;;;;9.77;7.18;;;25.30;49.10;;;;;;5112455;28;20024;-71
2021/06/08 08:50:14;;;;;;;11.43;7.43;;;25.40;48.70;;;;;;5112183;28;20103;-71
2021/06/08 08:52:44;;;;;;;9.63;6.60;;;25.50;48.60;;;;;;5112512;28;20026;-71
2021/06/08 08:55:11;;;;;;;10.90;6.97;;;25.50;48.70;;;;;;5111106;28;20016;-72
2021/06/08 08:57:44;;;;;;;11.40;6.53;;;25.60;48.60;;;;;;5113950;28;20024;-71
2021/06/08 09:00:11;;;;;;;8.40;6.50;;;25.70;48.60;;;;;;5102175;28;20030;-71
2021/06/08 09:02:37;;;;;;;12.60;6.07;;;25.80;48.50;;;;;;5116038;28;20024;-71
2021/06/08 09:05:04;;;;;;;7.13;5.72;;;25.80;48.20;;;;;;5116066;28;20142;-71
2021/06/08 09:07:30;;;;;;;10.90;7.07;;;25.90;48.10;;;;;;5115828;28;20450;-71
2021/06/08 09:09:57;;;;;;;8.23;7.10;;;26.00;47.70;;;;;;5114073;28;20020;-71
2021/06/08 09:12:23;;;;;;;9.98;5.82;;;26.00;47.50;;;;;;5096970;28;20078;-71
2021/06/08 09:14:49;;;;;;;8.63;5.05;;;26.20;47.50;;;;;;5111387;28;20468;-72
2021/06/08 09:17:17;;;;;;;8.02;6.07;;;26.20;47.00;;;;;;5095180;28;20099;-71
2021/06/08 09:19:43;;;;;;;12.43;5.93;;;26.30;46.90;;;;;;5095261;28;20039;-71
2021/06/08 09:22:11;;;;;;;5.63;5.13;;;26.40;47.30;;;;;;5095273;28;20477;-71
2021/06/08 09:24:40;;;;;;;7.18;5.13;;;26.50;46.80;;;;;;5112497;28;20024;-72
2021/06/08 09:27:08;;;;;;;6.25;4.55;;;26.60;46.80;;;;;;5115510;28;20024;-71
2021/06/08 09:29:39;;;;;;;10.65;6.07;;;26.80;47.00;;;;;;5112855;28;20030;-71
2021/06/08 09:32:27;;;;;;;5.72;5.15;;;26.90;46.00;;;;;;5110407;28;20048;-71
2021/06/08 09:35:01;;;;;;;5.70;4.50;;;27.00;45.70;;;;;;5095232;28;20028;-72
2021/06/08 09:37:38;;;;;;;8.85;4.55;;;27.20;43.80;;;;;;5099393;28;20020;-71
2021/06/08 09:40:26;;;;;;;5.63;4.10;;;27.30;42.50;;;;;;5114218;28;20481;-72
2021/06/08 09:43:09;;;;;;;7.75;4.55;;;27.50;43.20;;;;;;5102100;28;20419;-72
2021/06/08 09:45:49;;;;;;;5.68;4.25;;;27.60;42.30;;;;;;5099050;28;20052;-72
2021/06/08 09:48:15;;;;;;;5.78;3.75;;;27.80;42.00;;;;;;5113955;28;20026;-71
2021/06/08 09:50:42;;;;;;;5.55;4.28;;;27.90;41.90;;;;;;5114033;28;20040;-72
2021/06/08 09:53:24;;;;;;;5.45;3.80;;;28.10;41.50;;;;;;5113517;28;20511;-72
2021/06/08 09:55:50;;;;;;;4.20;3.55;;;28.30;39.70;;;;;;5115186;28;20024;-72
2021/06/08 09:58:16;;;;;;;5.53;3.58;;;28.40;39.50;;;;;;5114951;28;20492;-72
2021/06/08 10:00:41;;;;;;;4.28;3.83;;;28.50;39.40;;;;;;5114913;28;20056;-72
2021/06/08 10:03:07;;;;;;;6.43;3.53;;;28.60;37.60;;;;;;5113644;28;20038;-72
2021/06/08 10:05:33;;;;;;;7.93;3.65;;;28.70;37.40;;;;;;5114795;28;20027;-72
2021/06/08 10:07:59;;;;;;;4.78;3.60;;;28.80;37.30;;;;;;5114705;28;20020;-72
2021/06/08 10:10:44;;;;;;;5.60;3.72;;;28.90;36.60;;;;;;5113347;28;20477;-72
2021/06/08 10:13:14;;;;;;;5.88;3.63;;;29.00;37.30;;;;;;5114646;28;20026;-72
2021/06/08 10:15:59;;;;;;;6.82;3.90;;;29.10;36.80;;;;;;5113300;28;20110;-72
2021/06/08 10:18:48;;;;;;;12.05;3.95;;;29.20;36.70;;;;;;5114892;28;20012;-72
2021/06/08 10:21:15;;;;;;;7.93;4.18;;;29.30;37.50;;;;;;5114501;28;20015;-72
2021/06/08 10:23:41;;;;;;;8.52;4.03;;;29.40;35.50;;;;;;5112730;28;20028;-72
2021/06/08 10:26:10;;;;;;;5.22;3.80;;;29.50;36.20;;;;;;5114501;28;20024;-72
2021/06/08 10:28:36;;;;;;;6.95;4.30;;;29.70;36.50;;;;;;5114442;28;20043;-72
2021/06/08 10:31:03;;;;;;;4.28;3.85;;;29.80;35.40;;;;;;5112119;28;20362;-72
2021/06/08 10:33:30;;;;;;;5.75;3.83;;;30.00;35.50;;;;;;5114291;28;20414;-72
2021/06/08 10:35:56;;;;;;;5.35;3.97;;;30.20;33.90;;;;;;5107594;28;20031;-72
2021/06/08 10:38:24;;;;;;;4.70;3.72;;;30.40;34.30;;;;;;5107192;28;20111;-72
2021/06/08 10:40:55;;;;;;;3.83;3.40;;;30.70;34.20;;;;;;5114102;28;20030;-72
2021/06/08 10:43:27;;;;;;;9.50;3.75;;;30.90;32.60;;;;;;5103448;28;20087;-72
2021/06/08 10:45:57;;;;;;;4.43;3.60;;;31.20;32.40;;;;;;5105053;28;20504;-72
2021/06/08 10:48:27;;;;;;;6.05;3.80;;;31.40;31.30;;;;;;5093607;28;20392;-72
2021/06/08 10:51:14;;;;;;;4.63;3.78;;;31.60;32.40;;;;;;5101640;28;20133;-72
2021/06/08 10:53:42;;;;;;;8.85;3.97;;;31.80;32.90;;;;;;5092387;28;20032;-72
2021/06/08 10:56:28;;;;;;;8.93;5.20;;;31.90;30.80;;;;;;5092315;28;20028;-72
2021/06/08 10:59:05;;;;;;;10.70;4.55;;;32.20;31.20;;;;;;5093520;28;20092;-71
2021/06/08 11:01:31;;;;;;;7.35;4.60;;;32.20;30.70;;;;;;5093477;28;20024;-72
2021/06/08 11:03:58;;;;;;;11.00;5.50;;;32.20;31.30;;;;;;5093214;28;20031;-72
2021/06/08 11:06:47;;;;;;;8.00;4.50;;;32.20;31.10;;;;;;5093149;28;20020;-71
2021/06/08 11:09:15;;;;;;;5.57;4.03;;;32.10;31.80;;;;;;5093227;28;20434;-72
2021/06/08 11:11:48;;;;;;;9.65;5.32;;;32.10;31.70;;;;;;5092196;28;20377;-71
2021/06/08 11:14:57;;;;;;;10.52;4.32;;;31.90;30.80;;;;;;5092901;28;20512;-71
2021/06/08 11:17:29;;;;;;;6.05;3.58;;;31.70;32.10;;;;;;5093026;28;20027;-72
2021/06/08 11:19:58;;;;;;;7.32;4.10;;;31.50;32.10;;;;;;5112355;28;20524;-72
2021/06/08 11:22:56;;;;;;;7.00;3.40;;;31.40;32.70;;;;;;5112455;28;20110;-71
2021/06/08 11:25:33;;;;;;;7.70;3.45;;;31.40;33.00;;;;;;5093675;28;20081;-72
2021/06/08 11:28:20;;;;;;;4.30;3.72;;;31.40;32.30;;;;;;5096446;28;20469;-72
2021/06/08 11:30:58;;;;;;;4.13;3.05;;;31.30;31.60;;;;;;5092772;28;20116;-71
2021/06/08 11:33:36;;;;;;;4.60;3.33;;;31.30;32.10;;;;;;5092531;28;20072;-72
2021/06/08 11:36:18;;;;;;;6.70;3.47;;;31.30;32.00;;;;;;5093035;28;20473;-71
2021/06/08 11:38:45;;;;;;;6.18;3.85;;;31.30;32.50;;;;;;5092802;28;20532;-71
2021/06/08 11:41:11;;;;;;;8.40;4.30;;;31.40;32.10;;;;;;5111128;28;20035;-72
2021/06/08 11:43:37;;;;;;;11.45;4.18;;;31.30;32.30;;;;;;5096898;28;20016;-71
2021/06/08 11:46:12;;;;;;;8.77;4.20;;;31.30;32.60;;;;;;5107670;28;20414;-71
2021/06/08 11:48:46;;;;;;;15.75;4.68;;;31.20;32.70;;;;;;5104861;28;20111;-71
2021/06/08 11:51:15;;;;;;;7.30;4.00;;;31.20;33.00;;;;;;5099775;28;20028;-72
2021/06/08 11:54:18;;;;;;;14.02;4.32;;;31.30;33.50;;;;;;5101414;28;20346;-72
2021/06/08 11:56:48;;;;;;;10.60;4.55;;;31.30;33.80;;;;;;5101705;28;20027;-72
2021/06/08 11:59:16;;;;;;;14.35;4.35;;;31.30;33.60;;;;;;5113030;28;20051;-71
2021/06/08 12:01:49;;;;;;;9.45;4.13;;;31.40;33.20;;;;;;5113009;28;20104;-72
2021/06/08 12:04:16;;;;;;;10.52;4.55;;;31.40;33.00;;;;;;5112822;28;20503;-72
2021/06/08 12:07:08;;;;;;;7.70;4.13;;;31.40;33.10;;;;;;5112341;28;20035;-72
2021/06/08 12:09:42;;;;;;;8.38;3.28;;;31.30;33.00;;;;;;5112831;28;20020;-71
2021/06/08 12:12:11;;;;;;;4.68;3.40;;;31.30;33.00;;;;;;5112786;28;20019;-72
2021/06/08 12:14:47;;;;;;;7.45;3.22;;;31.30;33.60;;;;;;5107806;28;20020;-74
2021/06/08 12:17:13;;;;;;;10.52;3.75;;;31.40;33.60;;;;;;5099251;28;20461;-72
2021/06/08 12:19:40;;;;;;;9.32;3.08;;;31.50;33.30;;;;;;5112110;28;20020;-72
2021/06/08 12:22:30;;;;;;;7.80;3.72;;;31.70;32.30;;;;;;5112666;28;20024;-72
2021/06/08 12:24:57;;;;;;;5.57;3.30;;;31.80;31.40;;;;;;5110082;28;20038;-71
2021/06/08 12:27:41;;;;;;;3.60;2.95;;;31.90;30.40;;;;;;5102242;28;20385;-72
2021/06/08 12:30:19;;;;;;;7.80;3.88;;;32.10;29.90;;;;;;5090715;28;20516;-71
2021/06/08 12:32:55;;;;;;;5.60;2.85;;;32.10;30.10;;;;;;5093102;28;20036;-71
2021/06/08 12:35:26;;;;;;;9.60;3.55;;;32.20;30.40;;;;;;5096190;28;20040;-71
2021/06/08 12:38:06;;;;;;;5.90;3.20;;;32.30;29.60;;;;;;5094983;28;20024;-72
2021/06/08 12:40:32;;;;;;;7.72;3.15;;;32.30;29.90;;;;;;5096327;28;20039;-71
2021/06/08 12:43:01;;;;;;;4.75;3.10;;;32.20;29.70;;;;;;5095986;28;20020;-71
2021/06/08 12:45:26;;;;;;;6.80;3.40;;;32.10;29.80;;;;;;5099570;28;20507;-72
2021/06/08 12:47:52;;;;;;;7.90;3.05;;;32.00;29.80;;;;;;5095959;28;20099;-72
2021/06/08 12:50:36;;;;;;;6.03;2.70;;;31.90;30.00;;;;;;5094394;28;20075;-71
2021/06/08 12:53:04;;;;;;;3.55;2.60;;;31.80;30.00;;;;;;5109275;28;20028;-72
2021/06/08 12:55:32;;;;;;;13.30;4.20;;;31.70;30.40;;;;;;5116257;28;20098;-72